Time;durP1;ratioP1;P1;durP2;ratioP2;P2;SDS_P1;SDS_P2;PMS_P1;PMS_P2;Temp;Humidity;BMP_temperature;BMP_pressure;BME280_temperature;BME280_humidity;BME280_pressure;Samples;Min_cycle;Max_cycle;Signal;HPM_P1;HPM_P2
2022/07/19 00:02:26;;;;;;;9.30;3.38;;;;;;;22.08;43.72;100718.09;5027311;28;20080;-71
2022/07/19 00:04:53;;;;;;;6.43;3.05;;;;;;;22.01;44.04;100719.66;5026794;28;20076;-73
2022/07/19 00:07:20;;;;;;;5.72;3.15;;;;;;;21.86;44.40;100713.75;5028293;28;20167;-71
2022/07/19 00:09:46;;;;;;;5.55;2.88;;;;;;;21.75;44.60;100712.97;5027498;28;20099;-72
2022/07/19 00:12:13;;;;;;;6.72;3.40;;;;;;;21.78;44.54;100723.50;5025644;28;20091;-71
2022/07/19 00:14:40;;;;;;;9.60;3.28;;;;;;;21.65;44.08;100707.56;5026362;28;20084;-71
2022/07/19 00:17:07;;;;;;;6.32;2.83;;;;;;;21.79;44.27;100725.19;5027812;28;20057;-71
2022/07/19 00:19:34;;;;;;;5.65;3.20;;;;;;;21.78;44.16;100724.34;5033840;28;20049;-72
2022/07/19 00:22:01;;;;;;;5.88;3.17;;;;;;;21.78;44.13;100720.78;5025988;28;20069;-72
2022/07/19 00:24:27;;;;;;;9.25;3.08;;;;;;;21.72;44.43;100714.13;5027332;28;20041;-72
2022/07/19 00:26:54;;;;;;;8.98;3.30;;;;;;;21.78;44.19;100727.03;5026028;28;20092;-72
2022/07/19 00:29:20;;;;;;;10.93;3.10;;;;;;;21.55;44.44;100685.13;5026896;28;20498;-71
2022/07/19 00:31:47;;;;;;;11.00;3.70;;;;;;;21.73;44.02;100721.19;5033574;28;20119;-72
2022/07/19 00:34:15;;;;;;;7.03;3.10;;;;;;;21.68;44.25;100715.38;5024392;28;20476;-72
2022/07/19 00:36:42;;;;;;;6.82;2.80;;;;;;;21.63;44.65;100726.56;5034759;28;20124;-72
2022/07/19 00:39:08;;;;;;;6.55;2.88;;;;;;;21.55;44.60;100712.91;5026034;28;20101;-73
2022/07/19 00:41:42;;;;;;;8.25;2.92;;;;;;;21.57;44.80;100720.84;5034491;28;20085;-71
2022/07/19 00:44:10;;;;;;;15.80;3.33;;;;;;;21.59;44.70;100724.25;5021802;28;20528;-71
2022/07/19 00:46:38;;;;;;;7.55;2.80;;;;;;;21.54;44.64;100723.81;5040597;28;20045;-71
2022/07/19 00:49:06;;;;;;;7.72;3.08;;;;;;;21.50;44.70;100731.31;5028021;28;20037;-71
2022/07/19 00:51:40;;;;;;;8.98;3.13;;;;;;;21.43;44.61;100718.50;5030468;28;20062;-72
2022/07/19 00:54:10;;;;;;;8.95;3.15;;;;;;;21.37;44.97;100724.44;5024416;28;20041;-71
2022/07/19 00:56:38;;;;;;;10.18;2.85;;;;;;;21.31;44.73;100717.72;5037205;28;20477;-71
2022/07/19 00:59:05;;;;;;;7.53;2.83;;;;;;;21.27;45.07;100722.53;5032481;28;20045;-71
2022/07/19 01:01:32;;;;;;;6.72;2.60;;;;;;;21.22;44.76;100715.84;5028414;28;20107;-72
2022/07/19 01:03:59;;;;;;;6.30;2.78;;;;;;;21.15;44.91;100715.47;5027236;28;20139;-70
2022/07/19 01:06:26;;;;;;;6.38;2.90;;;;;;;21.14;44.61;100721.00;5030423;28;20052;-71
2022/07/19 01:08:53;;;;;;;8.70;3.10;;;;;;;21.08;44.71;100708.94;5026068;28;20449;-72
2022/07/19 01:11:20;;;;;;;5.53;2.70;;;;;;;21.10;44.81;100725.78;5024787;28;20136;-72
2022/07/19 01:13:47;;;;;;;6.00;2.83;;;;;;;21.09;45.08;100736.72;5031871;28;20080;-70
2022/07/19 01:16:13;;;;;;;6.85;3.08;;;;;;;21.08;45.21;100735.84;5031550;28;20045;-71
2022/07/19 01:18:42;;;;;;;11.38;2.88;;;;;;;21.04;45.00;100730.84;5032508;28;20076;-71
2022/07/19 01:21:18;;;;;;;6.82;2.88;;;;;;;21.11;45.07;100732.88;5027375;28;20049;-70
2022/07/19 01:23:45;;;;;;;7.28;3.20;;;;;;;21.09;45.01;100736.72;5021976;28;20497;-70
2022/07/19 01:26:15;;;;;;;6.00;2.90;;;;;;;21.00;45.00;100730.25;5031229;28;20057;-70
2022/07/19 01:28:42;;;;;;;8.10;2.83;;;;;;;20.97;45.26;100735.91;5032236;28;20439;-70
2022/07/19 01:31:09;;;;;;;6.93;2.80;;;;;;;20.87;45.36;100729.59;5026052;28;20045;-71
2022/07/19 01:33:40;;;;;;;5.82;2.90;;;;;;;20.80;45.50;100720.31;5022663;28;20050;-71
2022/07/19 01:36:08;;;;;;;7.03;2.97;;;;;;;20.84;45.96;100729.84;5027413;28;20149;-71
2022/07/19 01:38:35;;;;;;;6.03;2.83;;;;;;;20.79;45.60;100713.22;5032249;28;20060;-71
2022/07/19 01:41:02;;;;;;;4.88;2.60;;;;;;;20.83;45.72;100720.06;5027279;28;20441;-71
2022/07/19 01:43:28;;;;;;;5.78;2.67;;;;;;;20.80;46.14;100726.53;5053003;28;20061;-71
2022/07/19 01:45:55;;;;;;;6.70;2.60;;;;;;;20.61;46.45;100711.13;5028642;28;20067;-71
2022/07/19 01:48:24;;;;;;;6.57;2.88;;;;;;;20.66;46.48;100724.16;5031045;28;20068;-71
2022/07/19 01:50:50;;;;;;;11.32;3.03;;;;;;;20.54;46.67;100712.59;5029139;28;20072;-71
2022/07/19 01:53:17;;;;;;;7.50;2.88;;;;;;;20.48;46.89;100714.94;5024780;28;20482;-71
2022/07/19 01:55:44;;;;;;;7.10;3.20;;;;;;;20.37;47.25;100699.69;5026127;28;20096;-71
2022/07/19 01:58:10;;;;;;;11.05;3.13;;;;;;;20.44;47.05;100716.19;5024684;28;20103;-71
2022/07/19 02:00:37;;;;;;;8.05;2.92;;;;;;;20.28;47.63;100695.06;5025104;28;20116;-72
2022/07/19 02:03:03;;;;;;;9.50;2.90;;;;;;;20.30;47.90;100717.31;5021836;28;20462;-71
2022/07/19 02:05:30;;;;;;;8.15;3.10;;;;;;;20.30;48.21;100720.81;5024410;28;20046;-71
2022/07/19 02:08:00;;;;;;;9.43;3.08;;;;;;;20.27;47.96;100718.41;5026417;28;20045;-72
2022/07/19 02:10:27;;;;;;;6.47;2.50;;;;;;;20.24;48.23;100713.28;5026630;28;20169;-72
2022/07/19 02:12:53;;;;;;;6.25;2.88;;;;;;;20.10;48.17;100683.13;5022799;28;20079;-74
2022/07/19 02:15:20;;;;;;;3.17;2.60;;;;;;;20.22;48.27;100712.53;5025172;28;20053;-74
2022/07/19 02:17:47;;;;;;;9.23;2.88;;;;;;;20.17;48.29;100704.00;5023121;28;20057;-71
2022/07/19 02:20:13;;;;;;;5.45;2.38;;;;;;;20.18;48.46;100702.16;5036731;28;20397;-70
2022/07/19 02:22:40;;;;;;;9.20;2.45;;;;;;;20.20;48.53;100710.97;5025907;28;20399;-70
2022/07/19 02:25:07;;;;;;;6.25;2.30;;;;;;;20.18;48.48;100705.69;5034342;28;20095;-71
2022/07/19 02:27:34;;;;;;;4.15;2.70;;;;;;;20.17;48.74;100705.81;5029028;28;20099;-71
2022/07/19 02:30:01;;;;;;;9.20;2.85;;;;;;;20.11;48.80;100691.06;5028458;28;20111;-71
2022/07/19 02:32:28;;;;;;;4.70;2.50;;;;;;;20.14;48.83;100701.59;5025614;28;20046;-70
2022/07/19 02:34:54;;;;;;;6.68;2.50;;;;;;;20.07;49.25;100688.75;5034938;28;20045;-71
2022/07/19 02:37:21;;;;;;;6.43;2.72;;;;;;;20.05;49.18;100702.31;5033750;28;20049;-71
2022/07/19 02:39:48;;;;;;;6.05;2.88;;;;;;;20.00;49.61;100692.91;5040504;28;20045;-70
2022/07/19 02:42:14;;;;;;;4.53;2.80;;;;;;;19.95;49.85;100696.84;5028923;28;20099;-71
2022/07/19 02:44:41;;;;;;;3.50;2.50;;;;;;;19.86;49.89;100686.81;5035561;28;20072;-71
2022/07/19 02:47:07;;;;;;;6.78;3.17;;;;;;;19.88;49.68;100703.69;5027607;28;20112;-70
2022/07/19 02:49:34;;;;;;;7.55;2.92;;;;;;;19.76;50.16;100699.31;5031566;28;20049;-72
2022/07/19 02:52:01;;;;;;;8.75;3.03;;;;;;;19.71;50.42;100709.56;5030010;28;20079;-73
2022/07/19 02:54:28;;;;;;;6.25;2.80;;;;;;;19.63;50.77;100701.28;5031814;28;20041;-72
2022/07/19 02:56:55;;;;;;;6.68;2.90;;;;;;;19.43;50.93;100667.91;5032729;28;20195;-70
2022/07/19 02:59:21;;;;;;;4.80;2.70;;;;;;;19.48;50.94;100694.41;5028603;28;20041;-70
2022/07/19 03:01:48;;;;;;;6.80;3.05;;;;;;;19.55;51.32;100711.75;5030592;28;20516;-71
2022/07/19 03:04:15;;;;;;;8.70;3.30;;;;;;;19.57;51.11;100715.19;5027875;28;20405;-73
2022/07/19 03:06:41;;;;;;;8.60;3.10;;;;;;;19.54;51.14;100702.84;5025387;28;20045;-70
2022/07/19 03:09:08;;;;;;;9.07;3.00;;;;;;;19.43;51.71;100707.31;5023691;28;20053;-71
2022/07/19 03:11:35;;;;;;;6.95;3.03;;;;;;;19.30;51.66;100685.97;5058315;28;20151;-71
2022/07/19 03:14:02;;;;;;;6.72;2.92;;;;;;;19.46;51.54;100720.50;5035538;28;20139;-72
2022/07/19 03:16:29;;;;;;;8.70;3.10;;;;;;;19.40;52.19;100715.63;5032341;28;20144;-72
2022/07/19 03:18:55;;;;;;;5.60;2.72;;;;;;;19.38;51.87;100723.78;5033682;28;20069;-72
2022/07/19 03:21:22;;;;;;;8.07;2.95;;;;;;;19.28;51.91;100712.06;5028467;28;20505;-72
2022/07/19 03:23:51;;;;;;;7.80;3.13;;;;;;;19.20;52.06;100711.81;5024311;28;20045;-72
2022/07/19 03:26:18;;;;;;;7.85;2.72;;;;;;;19.16;52.48;100715.72;5028612;28;20037;-71
2022/07/19 03:28:44;;;;;;;7.07;3.00;;;;;;;19.15;52.27;100701.44;5025173;28;20048;-71
2022/07/19 03:31:11;;;;;;;7.50;3.20;;;;;;;19.18;52.43;100709.25;5027212;28;20053;-71
2022/07/19 03:33:38;;;;;;;7.10;3.20;;;;;;;19.16;52.25;100703.16;5027215;28;20391;-71
2022/07/19 03:36:04;;;;;;;8.32;3.00;;;;;;;19.16;51.69;100704.97;5034796;28;20050;-71
2022/07/19 03:38:31;;;;;;;9.93;3.17;;;;;;;19.13;52.40;100703.38;5035412;28;20059;-71
2022/07/19 03:40:57;;;;;;;7.00;3.22;;;;;;;19.08;52.44;100710.06;5026206;28;20053;-71
2022/07/19 03:43:24;;;;;;;9.05;3.25;;;;;;;19.00;52.70;100713.38;5027669;28;20080;-72
2022/07/19 03:45:51;;;;;;;10.30;3.55;;;;;;;19.02;52.41;100711.41;5026878;28;20061;-71
2022/07/19 03:48:17;;;;;;;11.63;2.90;;;;;;;19.06;52.24;100718.25;5024498;28;20129;-73
2022/07/19 03:50:44;;;;;;;11.40;3.13;;;;;;;18.99;52.52;100716.16;5029445;28;20497;-71
2022/07/19 03:53:12;;;;;;;5.00;2.70;;;;;;;18.96;52.75;100721.75;5024661;28;20058;-72
2022/07/19 03:55:38;;;;;;;6.93;3.00;;;;;;;18.93;52.78;100728.22;5030220;28;20449;-70
2022/07/19 03:58:05;;;;;;;8.40;2.92;;;;;;;18.85;52.95;100722.59;5027568;28;20073;-72
2022/07/19 04:00:32;;;;;;;6.25;2.88;;;;;;;18.88;53.15;100722.38;5031380;28;20046;-72
2022/07/19 04:02:58;;;;;;;5.07;2.70;;;;;;;18.75;53.03;100692.03;5029897;28;20050;-72
2022/07/19 04:05:25;;;;;;;6.07;2.70;;;;;;;18.96;52.38;100725.28;5024518;28;20056;-72
2022/07/19 04:07:54;;;;;;;5.95;3.05;;;;;;;18.99;52.52;100719.69;5025297;28;20103;-70
2022/07/19 04:10:20;;;;;;;6.20;2.40;;;;;;;18.92;52.78;100700.53;5018883;28;20571;-71
2022/07/19 04:12:47;;;;;;;7.55;2.58;;;;;;;19.00;52.96;100709.81;5023266;28;20683;-71
2022/07/19 04:15:14;;;;;;;7.28;3.10;;;;;;;18.94;53.06;100721.88;5020650;28;20049;-72
2022/07/19 04:17:40;;;;;;;5.28;2.42;;;;;;;18.93;53.51;100721.00;5022580;28;20117;-72
2022/07/19 04:20:07;;;;;;;6.28;2.60;;;;;;;18.91;53.13;100722.97;5023305;28;20167;-71
2022/07/19 04:22:34;;;;;;;5.07;2.50;;;;;;;18.80;53.54;100714.03;5030668;28;20076;-71
2022/07/19 04:25:02;;;;;;;6.53;2.67;;;;;;;18.73;53.75;100712.78;5028716;28;20733;-71
2022/07/19 04:27:30;;;;;;;5.72;2.92;;;;;;;18.84;54.07;100723.56;5028704;28;20049;-72
2022/07/19 04:29:57;;;;;;;3.70;2.63;;;;;;;18.83;54.05;100719.16;5026507;28;20045;-71
2022/07/19 04:32:23;;;;;;;4.45;3.00;;;;;;;18.84;54.14;100734.28;5024536;28;20099;-73
2022/07/19 04:34:50;;;;;;;3.95;2.40;;;;;;;18.85;53.96;100736.00;5035373;28;20800;-71
2022/07/19 04:37:16;;;;;;;6.13;3.22;;;;;;;18.87;53.30;100731.38;5027424;28;20061;-72
2022/07/19 04:39:45;;;;;;;6.43;2.90;;;;;;;18.96;52.89;100738.72;5031856;28;20126;-71
2022/07/19 04:42:11;;;;;;;5.05;3.05;;;;;;;19.02;52.98;100740.09;5019955;28;20054;-71
2022/07/19 04:44:38;;;;;;;5.45;3.10;;;;;;;19.03;52.70;100728.38;5029395;28;20057;-72
2022/07/19 04:47:04;;;;;;;7.90;3.05;;;;;;;19.08;53.02;100737.78;5034403;28;20401;-71
2022/07/19 04:49:31;;;;;;;10.02;2.95;;;;;;;19.04;52.94;100720.22;5025494;28;20115;-71
2022/07/19 04:51:58;;;;;;;11.05;3.63;;;;;;;19.10;53.31;100722.41;5036589;28;20042;-72
2022/07/19 04:54:25;;;;;;;3.80;2.92;;;;;;;19.17;53.09;100726.34;5024245;28;20045;-70
2022/07/19 04:56:52;;;;;;;6.85;2.90;;;;;;;19.24;52.84;100732.06;5031711;28;20780;-71
2022/07/19 04:59:18;;;;;;;6.35;2.70;;;;;;;19.32;52.83;100736.84;5028902;28;20414;-71
2022/07/19 05:01:45;;;;;;;9.93;3.65;;;;;;;19.41;52.44;100742.34;5028249;28;20128;-71
2022/07/19 05:04:18;;;;;;;8.40;2.60;;;;;;;19.49;52.15;100739.09;5020776;28;20053;-73
2022/07/19 05:06:45;;;;;;;7.85;2.88;;;;;;;19.38;52.10;100712.19;5025868;28;20095;-71
2022/07/19 05:09:12;;;;;;;7.65;2.95;;;;;;;19.58;51.65;100741.06;5024560;28;20099;-70
2022/07/19 05:11:43;;;;;;;6.15;2.67;;;;;;;19.58;51.69;100733.84;5025750;28;20056;-72
2022/07/19 05:14:10;;;;;;;7.82;3.17;;;;;;;19.55;51.95;100711.75;5028171;28;20064;-72
2022/07/19 05:16:37;;;;;;;6.70;2.88;;;;;;;19.70;51.26;100723.09;5030346;28;20115;-72
2022/07/19 05:19:04;;;;;;;5.75;2.85;;;;;;;19.80;50.93;100730.34;5035222;28;20051;-72
2022/07/19 05:21:30;;;;;;;6.22;2.92;;;;;;;19.83;51.16;100722.00;5025134;28;20053;-71
2022/07/19 05:23:57;;;;;;;5.00;2.90;;;;;;;19.92;50.87;100725.78;5021577;28;20054;-71
2022/07/19 05:26:24;;;;;;;6.97;3.00;;;;;;;19.82;50.78;100706.03;5027663;28;20061;-71
2022/07/19 05:28:51;;;;;;;7.22;3.28;;;;;;;20.00;50.02;100719.78;5026407;28;20041;-71
2022/07/19 05:31:18;;;;;;;3.30;2.38;;;;;;;19.93;50.18;100704.16;5027207;28;20042;-73
2022/07/19 05:33:45;;;;;;;5.28;3.08;;;;;;;20.15;49.72;100721.22;5025690;28;20088;-71
2022/07/19 05:36:11;;;;;;;7.15;2.90;;;;;;;20.23;49.55;100721.47;5026692;28;20657;-71
2022/07/19 05:38:38;;;;;;;4.50;3.00;;;;;;;20.35;49.50;100731.22;5022370;28;20782;-71
2022/07/19 05:41:10;;;;;;;6.43;2.72;;;;;;;20.38;49.00;100717.56;5023175;28;20490;-72
2022/07/19 05:43:38;;;;;;;4.95;2.83;;;;;;;20.57;48.31;100720.44;5022655;28;20516;-72
2022/07/19 05:46:05;;;;;;;11.65;3.00;;;;;;;20.68;48.62;100722.22;5024038;28;20072;-72
2022/07/19 05:48:32;;;;;;;6.45;3.30;;;;;;;20.75;47.92;100722.56;5021612;28;20057;-72
2022/07/19 05:50:59;;;;;;;6.15;2.65;;;;;;;20.89;47.65;100722.25;5024645;28;20053;-72
2022/07/19 05:53:29;;;;;;;6.65;2.90;;;;;;;20.97;47.09;100725.13;5026997;28;20046;-72
2022/07/19 05:55:56;;;;;;;6.45;2.83;;;;;;;21.02;47.81;100714.81;5042737;28;20037;-72
2022/07/19 05:58:24;;;;;;;7.40;2.70;;;;;;;21.11;51.08;100729.31;5038889;28;20501;-73
2022/07/19 06:03:41;;;;;;;5.80;3.20;;;;;;;21.18;47.68;100726.00;5025582;28;20057;-74
2022/07/19 06:06:08;;;;;;;6.35;2.90;;;;;;;21.26;47.52;100736.97;5032340;28;20045;-73
2022/07/19 06:08:35;;;;;;;5.55;2.67;;;;;;;21.38;46.88;100736.94;5025655;28;20119;-72
2022/07/19 06:11:02;;;;;;;5.43;3.10;;;;;;;21.38;45.19;100713.53;5027702;28;20083;-72
2022/07/19 06:13:34;;;;;;;6.00;2.78;;;;;;;21.70;45.05;100737.66;5020451;28;20050;-75
2022/07/19 06:16:01;;;;;;;6.65;3.08;;;;;;;21.75;44.38;100703.03;5024890;28;20178;-74
2022/07/19 06:18:34;;;;;;;8.05;2.40;;;;;;;22.10;43.88;100724.19;5027323;28;20057;-72
2022/07/19 06:21:06;;;;;;;6.32;2.65;;;;;;;22.26;43.64;100694.00;5020114;28;20151;-74
2022/07/19 06:23:33;;;;;;;6.55;2.72;;;;;;;22.84;42.58;100727.28;5028465;28;20053;-72
2022/07/19 06:26:00;;;;;;;5.63;2.58;;;;;;;23.16;42.07;100718.03;5024848;28;20045;-72
2022/07/19 06:28:27;;;;;;;7.00;2.53;;;;;;;23.68;41.47;100733.69;5026447;28;20053;-73
2022/07/19 06:30:54;;;;;;;9.07;2.40;;;;;;;24.14;39.73;100719.25;5023323;28;20057;-72
2022/07/19 06:33:21;;;;;;;4.78;2.83;;;;;;;24.63;38.57;100695.44;5021484;28;20050;-73
2022/07/19 06:35:48;;;;;;;6.15;2.42;;;;;;;25.44;37.47;100727.75;5019580;28;20054;-72
2022/07/19 06:38:15;;;;;;;7.78;2.65;;;;;;;25.90;36.49;100710.22;5021641;28;20048;-72
2022/07/19 06:40:42;;;;;;;4.90;2.42;;;;;;;26.32;35.45;100701.22;5022700;28;20064;-71
2022/07/19 06:43:36;;;;;;;6.93;2.83;;;;;;;26.92;35.05;100713.53;5027665;28;20073;-73
2022/07/19 06:46:05;;;;;;;5.15;2.63;;;;;;;27.31;33.63;100712.84;5024236;28;20438;-72
2022/07/19 06:48:32;;;;;;;3.83;2.33;;;;;;;27.65;33.08;100717.22;5019602;28;20045;-72
2022/07/19 06:50:59;;;;;;;6.07;2.33;;;;;;;27.92;31.98;100712.19;5022415;28;20072;-74
2022/07/19 06:53:26;;;;;;;6.63;2.20;;;;;;;28.12;31.45;100704.44;5019863;28;20132;-71
2022/07/19 06:55:53;;;;;;;4.25;2.05;;;;;;;28.41;30.87;100716.56;5026651;28;20104;-72
2022/07/19 06:58:19;;;;;;;5.25;2.28;;;;;;;28.70;30.41;100724.88;5023818;28;20091;-74
2022/07/19 07:00:48;;;;;;;8.57;2.50;;;;;;;28.91;30.31;100721.53;5025923;28;20041;-71
2022/07/19 07:03:17;;;;;;;4.03;2.00;;;;;;;29.00;29.92;100722.28;5024778;28;20057;-73
2022/07/19 07:05:45;;;;;;;3.65;1.92;;;;;;;28.96;30.74;100735.47;5021862;28;20517;-71
2022/07/19 07:08:11;;;;;;;5.60;2.20;;;;;;;29.02;30.46;100722.97;5020198;28;20065;-73
2022/07/19 07:10:39;;;;;;;3.33;2.17;;;;;;;29.01;31.45;100732.16;5021588;28;20037;-72
2022/07/19 07:13:06;;;;;;;3.67;2.03;;;;;;;28.92;30.47;100739.59;5027981;28;20046;-72
2022/07/19 07:15:33;;;;;;;6.63;2.15;;;;;;;29.08;30.08;100728.53;5027774;28;20169;-72
2022/07/19 07:17:59;;;;;;;5.13;2.30;;;;;;;29.28;29.63;100728.84;5020223;28;20069;-72
2022/07/19 07:20:26;;;;;;;5.00;2.00;;;;;;;29.47;29.25;100722.88;5021334;28;20084;-73
2022/07/19 07:22:53;;;;;;;6.32;2.33;;;;;;;29.75;29.40;100727.72;5017797;28;20051;-72
2022/07/19 07:25:20;;;;;;;4.63;2.05;;;;;;;30.02;28.37;100721.63;5019139;28;20441;-72
2022/07/19 07:27:47;;;;;;;6.13;2.55;;;;;;;30.16;28.84;100709.81;5023942;28;20056;-70
2022/07/19 07:30:13;;;;;;;3.67;2.20;;;;;;;30.52;28.47;100725.38;5020220;28;20058;-70
2022/07/19 07:32:40;;;;;;;5.32;1.92;;;;;;;30.52;29.30;100719.91;5018960;28;20110;-72
2022/07/19 07:35:07;;;;;;;4.80;1.92;;;;;;;30.39;29.23;100712.38;5019059;28;20054;-71
2022/07/19 07:37:34;;;;;;;6.20;1.98;;;;;;;30.33;29.49;100697.63;5026573;28;20049;-72
2022/07/19 07:40:02;;;;;;;3.28;1.80;;;;;;;30.48;27.70;100699.47;5031479;28;20041;-70
2022/07/19 07:42:33;;;;;;;5.07;2.00;;;;;;;30.72;28.25;100706.44;5025390;28;20061;-71
2022/07/19 07:45:00;;;;;;;4.38;2.30;;;;;;;31.02;27.26;100711.56;5029369;28;20072;-71
2022/07/19 07:47:27;;;;;;;6.35;2.13;;;;;;;31.15;27.50;100690.91;5029377;28;20127;-71
2022/07/19 07:49:55;;;;;;;5.18;2.10;;;;;;;31.43;26.57;100708.13;5031559;28;20048;-72
2022/07/19 07:52:21;;;;;;;3.42;2.00;;;;;;;31.37;26.00;100695.25;5029226;28;20049;-70
2022/07/19 07:54:50;;;;;;;4.32;1.80;;;;;;;31.26;26.44;100682.97;5025504;28;20058;-73
2022/07/19 07:57:37;;;;;;;4.57;2.10;;;;;;;31.54;25.79;100680.19;5031531;28;20052;-70
2022/07/19 08:00:06;;;;;;;4.85;1.98;;;;;;;31.81;25.25;100694.91;5025318;28;20053;-72
2022/07/19 08:02:42;;;;;;;3.83;2.05;;;;;;;31.98;25.00;100700.88;5033255;28;20065;-70
2022/07/19 08:05:09;;;;;;;5.32;1.70;;;;;;;31.96;25.84;100711.19;5027169;28;20049;-70
2022/07/19 08:07:36;;;;;;;10.55;2.53;;;;;;;32.02;24.68;100694.81;5032831;28;20103;-71
2022/07/19 08:10:06;;;;;;;5.72;1.90;;;;;;;32.19;25.01;100698.06;5029667;28;20049;-71
2022/07/19 08:12:32;;;;;;;3.78;2.30;;;;;;;32.29;24.46;100703.13;5028922;28;20065;-71
2022/07/19 08:14:59;;;;;;;6.47;2.47;;;;;;;32.23;24.65;100702.09;5028312;28;20073;-72
2022/07/19 08:17:26;;;;;;;5.05;3.10;;;;;;;31.98;24.83;100685.28;5027485;28;20137;-70
2022/07/19 08:19:53;;;;;;;6.00;2.17;;;;;;;32.16;25.36;100703.91;5031449;28;20049;-74
2022/07/19 08:22:20;;;;;;;3.75;2.50;;;;;;;32.33;24.82;100704.44;5034077;28;20088;-73
2022/07/19 08:24:47;;;;;;;8.90;2.40;;;;;;;32.45;24.72;100678.09;5028431;28;20068;-72
2022/07/19 08:27:13;;;;;;;9.38;2.28;;;;;;;32.51;24.34;100698.34;5028978;28;20052;-71
2022/07/19 08:29:40;;;;;;;6.53;2.20;;;;;;;32.50;24.52;100694.78;5062549;28;20068;-71
2022/07/19 08:32:07;;;;;;;6.38;2.70;;;;;;;32.58;24.13;100693.75;5035370;28;20064;-72
2022/07/19 08:34:34;;;;;;;5.05;2.42;;;;;;;32.53;24.26;100671.59;5035388;28;20505;-70
2022/07/19 08:37:01;;;;;;;6.90;2.30;;;;;;;32.49;24.65;100678.53;5036031;28;20481;-71
2022/07/19 08:39:27;;;;;;;7.20;2.55;;;;;;;32.58;24.88;100682.78;5027954;28;20107;-70
2022/07/19 08:41:54;;;;;;;6.93;2.42;;;;;;;32.61;25.42;100671.38;5033191;28;20049;-71
2022/07/19 08:44:22;;;;;;;5.28;2.78;;;;;;;32.68;24.72;100684.06;5032686;28;20111;-70
2022/07/19 08:46:49;;;;;;;9.18;2.65;;;;;;;32.63;25.24;100677.50;5036326;28;20073;-70
2022/07/19 08:49:16;;;;;;;6.28;2.15;;;;;;;32.53;24.95;100680.66;5029129;28;20053;-70
2022/07/19 08:51:44;;;;;;;7.28;2.50;;;;;;;32.47;25.21;100669.66;5033481;28;20053;-71
2022/07/19 08:54:11;;;;;;;6.85;2.47;;;;;;;32.47;25.36;100683.38;5031757;28;20073;-71
2022/07/19 08:59:23;;;;;;;6.82;2.47;;;;;;;32.63;24.62;100680.25;5030364;28;20048;-71
2022/07/19 09:01:50;;;;;;;5.70;2.63;;;;;;;32.55;24.65;100667.59;5033322;28;20478;-71
2022/07/19 09:04:20;;;;;;;4.55;2.28;;;;;;;32.61;24.97;100663.16;5028149;28;20041;-71
2022/07/19 09:06:54;;;;;;;4.70;2.22;;;;;;;32.90;24.99;100670.19;5026780;28;20057;-70
2022/07/19 09:09:26;;;;;;;6.15;2.13;;;;;;;33.14;24.50;100672.28;5030667;28;20122;-70
2022/07/19 09:11:54;;;;;;;9.25;2.50;;;;;;;33.42;24.02;100672.03;5032178;28;20061;-71
2022/07/19 09:14:25;;;;;;;4.55;2.33;;;;;;;33.49;23.54;100653.66;5027193;28;20457;-71
2022/07/19 09:16:52;;;;;;;3.28;2.00;;;;;;;33.67;23.16;100663.97;5024396;28;20149;-70
2022/07/19 09:19:20;;;;;;;8.60;3.05;;;;;;;33.25;23.63;100657.09;5023908;28;20144;-70
2022/07/19 09:21:57;;;;;;;4.95;2.30;;;;;;;32.27;24.82;100634.84;5025359;28;20136;-72
2022/07/19 09:24:25;;;;;;;5.38;2.35;;;;;;;32.28;25.12;100660.34;5024723;28;20046;-71
2022/07/19 09:27:04;;;;;;;3.38;2.35;;;;;;;32.25;24.62;100664.38;5028063;28;20045;-71
2022/07/19 09:29:33;;;;;;;4.25;2.53;;;;;;;32.26;25.12;100660.56;5030114;28;20049;-70
2022/07/19 09:32:08;;;;;;;3.93;2.33;;;;;;;32.28;25.05;100652.13;5037219;28;20061;-71
2022/07/19 09:34:38;;;;;;;3.53;2.20;;;;;;;32.24;24.84;100648.97;5030158;28;20489;-71
2022/07/19 09:37:14;;;;;;;6.35;2.42;;;;;;;32.21;24.57;100651.28;5030128;28;20055;-70
2022/07/19 09:39:46;;;;;;;11.43;2.22;;;;;;;32.26;24.46;100646.03;5034924;28;20041;-71
2022/07/19 09:42:16;;;;;;;5.55;2.60;;;;;;;32.20;24.62;100638.63;5028941;28;20497;-74
2022/07/19 09:44:45;;;;;;;12.18;2.70;;;;;;;32.23;24.67;100644.53;5023684;28;20465;-72
2022/07/19 09:47:13;;;;;;;4.07;2.22;;;;;;;32.23;23.97;100641.81;5031183;28;20215;-72
2022/07/19 09:49:40;;;;;;;7.60;2.33;;;;;;;32.12;24.65;100627.81;5040390;28;20047;-72
2022/07/19 09:52:08;;;;;;;5.80;2.17;;;;;;;32.12;24.09;100634.13;5036006;28;20375;-72
2022/07/19 09:54:37;;;;;;;4.28;2.35;;;;;;;32.16;23.86;100635.41;5026860;28;20144;-71
2022/07/19 09:57:07;;;;;;;5.95;2.17;;;;;;;32.10;24.22;100618.97;5028314;28;20133;-71
2022/07/19 09:59:34;;;;;;;4.35;2.10;;;;;;;32.19;24.95;100620.47;5032138;28;20461;-71
2022/07/19 10:02:03;;;;;;;3.35;2.22;;;;;;;32.25;24.02;100630.63;5034462;28;20052;-72
2022/07/19 10:04:32;;;;;;;2.78;2.13;;;;;;;32.35;23.30;100629.16;5030130;28;20037;-71
2022/07/19 10:07:01;;;;;;;2.22;1.77;;;;;;;32.49;23.51;100621.81;5031937;28;20428;-72
2022/07/19 10:09:29;;;;;;;9.45;2.00;;;;;;;32.63;23.20;100614.44;5031450;28;20069;-72
2022/07/19 10:11:56;;;;;;;4.03;2.30;;;;;;;32.75;23.27;100605.38;5033108;28;20037;-71
2022/07/19 10:14:23;;;;;;;8.05;2.15;;;;;;;33.01;22.53;100611.94;5029849;28;20517;-70
2022/07/19 10:16:53;;;;;;;4.13;2.30;;;;;;;33.14;22.29;100613.78;5032444;28;20095;-70
2022/07/19 10:19:43;;;;;;;5.88;2.10;;;;;;;33.20;21.83;100612.97;5025954;28;20128;-70
2022/07/19 10:22:18;;;;;;;3.50;1.95;;;;;;;33.21;22.02;100604.50;5022826;28;20129;-70
2022/07/19 10:24:46;;;;;;;2.70;2.13;;;;;;;33.28;21.44;100612.75;5024211;28;20083;-70
2022/07/19 10:27:16;;;;;;;8.05;2.17;;;;;;;33.30;21.50;100599.66;5034579;28;20430;-71
2022/07/19 10:29:43;;;;;;;6.97;1.88;;;;;;;33.36;21.03;100593.31;5028300;28;20077;-71
2022/07/19 10:32:12;;;;;;;6.80;1.80;;;;;;;33.47;19.91;100591.78;5031486;28;20073;-72
2022/07/19 10:34:40;;;;;;;5.57;1.70;;;;;;;33.57;19.31;100594.91;5028711;28;20122;-71
2022/07/19 10:37:07;;;;;;;3.13;1.80;;;;;;;33.68;19.23;100580.53;5026843;28;20140;-72
2022/07/19 10:39:39;;;;;;;9.40;1.95;;;;;;;33.78;19.38;100583.66;5030335;28;20053;-71
2022/07/19 10:42:13;;;;;;;3.58;1.70;;;;;;;33.87;19.37;100579.59;5029337;28;20152;-71
2022/07/19 10:44:55;;;;;;;3.25;2.10;;;;;;;34.05;19.57;100576.94;5034289;28;20429;-71
2022/07/19 10:47:22;;;;;;;6.45;2.00;;;;;;;34.21;19.48;100570.06;5026199;28;20057;-70
2022/07/19 10:49:49;;;;;;;2.90;1.55;;;;;;;34.36;19.89;100572.53;5032849;28;20120;-70
2022/07/19 10:52:28;;;;;;;4.22;2.03;;;;;;;34.43;19.72;100568.69;5024932;28;20494;-72
2022/07/19 10:55:24;;;;;;;4.35;1.85;;;;;;;34.44;19.39;100553.03;5027877;28;20046;-72
2022/07/19 10:58:12;;;;;;;2.70;1.65;;;;;;;34.45;19.71;100558.31;5033900;28;20049;-71
2022/07/19 11:00:44;;;;;;;3.63;1.92;;;;;;;34.56;19.46;100556.72;5034527;28;20098;-71
2022/07/19 11:03:23;;;;;;;6.32;2.17;;;;;;;34.73;18.82;100557.00;5035082;28;20150;-69
2022/07/19 11:06:01;;;;;;;3.83;1.90;;;;;;;34.75;18.86;100530.94;5024904;28;20099;-70
2022/07/19 11:08:33;;;;;;;6.18;2.05;;;;;;;34.92;18.42;100542.25;5022197;28;20037;-70
2022/07/19 11:11:12;;;;;;;3.17;2.13;;;;;;;35.03;18.09;100544.22;5021048;28;20057;-71
2022/07/19 11:13:42;;;;;;;7.95;1.85;;;;;;;35.12;18.19;100540.09;5021767;28;20050;-70
2022/07/19 11:16:09;;;;;;;3.20;1.90;;;;;;;35.21;17.86;100537.06;5023006;28;20495;-71
2022/07/19 11:18:36;;;;;;;4.85;1.70;;;;;;;35.20;17.43;100536.22;5024681;28;20126;-71
2022/07/19 11:21:05;;;;;;;4.18;1.70;;;;;;;35.18;17.61;100533.69;5027348;28;20053;-71
2022/07/19 11:23:34;;;;;;;5.47;1.80;;;;;;;35.20;17.37;100529.88;5025743;28;20061;-71
2022/07/19 11:26:12;;;;;;;5.63;1.77;;;;;;;35.15;17.32;100523.13;5027991;28;20468;-70
2022/07/19 11:28:41;;;;;;;5.10;2.03;;;;;;;35.10;17.23;100509.19;5040391;28;20037;-72
2022/07/19 11:31:14;;;;;;;;;;;;;;;35.18;17.86;100519.91;5026699;28;20046;-71
2022/07/19 11:33:42;;;;;;;5.03;1.90;;;;;;;35.24;17.42;100515.41;5025648;28;19927;-71
2022/07/19 11:36:09;;;;;;;4.45;1.63;;;;;;;35.26;17.32;100507.75;5027746;28;20081;-71